Time;durP1;ratioP1;P1;durP2;ratioP2;P2;SDS_P1;SDS_P2;PMS_P1;PMS_P2;Temp;Humidity;BMP_temperature;BMP_pressure;BME280_temperature;BME280_humidity;BME280_pressure;Samples;Min_cycle;Max_cycle;Signal;HPM_P1;HPM_P2
2024/03/30 00:01:26;;;;;;;8.75;4.10;;;;;;;18.20;49.68;99737.88;5093683;28;20053;-25
2024/03/30 00:03:52;;;;;;;10.45;4.30;;;;;;;18.16;49.53;99729.47;5093413;28;20388;-26
2024/03/30 00:06:18;;;;;;;8.07;4.03;;;;;;;18.06;49.28;99730.19;5093800;28;20027;-26
2024/03/30 00:08:43;;;;;;;12.02;4.75;;;;;;;18.06;48.67;99724.00;5093268;28;20031;-25
2024/03/30 00:11:09;;;;;;;11.73;4.53;;;;;;;17.90;48.83;99723.84;5092669;28;20028;-26
2024/03/30 00:13:34;;;;;;;11.57;4.53;;;;;;;17.90;49.00;99723.03;5093233;28;20696;-26
2024/03/30 00:16:07;;;;;;;10.32;4.30;;;;;;;17.83;49.19;99720.50;5092962;28;20084;-25
2024/03/30 00:18:32;;;;;;;8.38;4.30;;;;;;;17.91;48.56;99719.25;5093798;28;20035;-25
2024/03/30 00:20:58;;;;;;;9.02;3.60;;;;;;;17.96;48.00;99722.03;5093266;28;20032;-26
2024/03/30 00:23:23;;;;;;;8.82;3.50;;;;;;;17.97;47.92;99721.78;5092993;28;20051;-26
2024/03/30 00:25:52;;;;;;;9.85;3.95;;;;;;;17.88;48.23;99730.56;5092951;28;20480;-26
2024/03/30 00:28:18;;;;;;;9.10;4.07;;;;;;;17.72;48.12;99727.63;5092821;28;20471;-26
2024/03/30 00:30:45;;;;;;;8.75;3.97;;;;;;;17.75;48.16;99740.59;5092724;28;20189;-25
2024/03/30 00:33:15;;;;;;;9.38;4.40;;;;;;;17.74;48.09;99732.75;5092477;28;20057;-26
2024/03/30 00:35:40;;;;;;;10.00;4.22;;;;;;;17.81;47.36;99736.09;5092910;28;20099;-26
2024/03/30 00:38:09;;;;;;;9.55;4.13;;;;;;;17.86;47.41;99743.41;5092525;28;20518;-26
2024/03/30 00:40:35;;;;;;;7.28;3.90;;;;;;;17.85;47.43;99733.72;5092632;28;20492;-26
2024/03/30 00:43:02;;;;;;;7.35;3.65;;;;;;;17.85;47.44;99734.53;5092693;28;20031;-26
2024/03/30 00:45:28;;;;;;;8.95;3.83;;;;;;;17.84;47.34;99740.13;5091855;28;20026;-26
2024/03/30 00:47:53;;;;;;;7.63;3.53;;;;;;;17.83;47.72;99741.22;5092296;28;20027;-27
2024/03/30 00:50:19;;;;;;;8.63;3.72;;;;;;;17.78;48.12;99745.47;5092566;28;20040;-26
2024/03/30 00:52:44;;;;;;;9.23;3.78;;;;;;;17.80;47.92;99745.25;5091496;28;20024;-26
2024/03/30 00:55:10;;;;;;;6.93;3.55;;;;;;;17.68;47.62;99745.34;5092291;28;20393;-26
2024/03/30 00:57:41;;;;;;;10.20;3.90;;;;;;;17.73;47.83;99753.47;5092429;28;20020;-26
2024/03/30 01:00:11;;;;;;;10.18;3.80;;;;;;;17.66;48.43;99744.78;5092075;28;20067;-25
2024/03/30 01:02:39;;;;;;;;;;;;;;;17.87;48.63;99737.78;5092470;28;20030;-26
2024/03/30 01:05:05;;;;;;;9.23;3.72;;;;;;;17.53;48.83;99726.31;5092120;28;19912;-25
2024/03/30 01:07:31;;;;;;;12.38;4.20;;;;;;;17.60;48.82;99737.72;5090640;28;20024;-26
2024/03/30 01:09:56;;;;;;;11.90;4.03;;;;;;;17.61;49.14;99741.22;5091996;28;20032;-26
2024/03/30 01:12:24;;;;;;;8.60;4.03;;;;;;;17.59;49.06;99736.91;5092197;28;20028;-26
2024/03/30 01:14:49;;;;;;;9.82;4.45;;;;;;;17.62;48.83;99732.09;5092043;28;20106;-26
2024/03/30 01:17:17;;;;;;;12.02;3.90;;;;;;;17.50;49.33;99729.53;5091500;28;20628;-26
2024/03/30 01:19:43;;;;;;;7.28;3.83;;;;;;;17.47;49.90;99738.88;5091979;28;20036;-26
2024/03/30 01:22:08;;;;;;;12.82;4.47;;;;;;;17.41;50.34;99733.69;5092200;28;20028;-26
2024/03/30 01:24:34;;;;;;;10.45;4.43;;;;;;;17.34;50.00;99737.38;5091744;28;20107;-26
2024/03/30 01:27:03;;;;;;;13.20;4.75;;;;;;;17.27;50.59;99731.38;5091651;28;20089;-26
2024/03/30 01:29:30;;;;;;;12.83;4.83;;;;;;;17.33;49.79;99734.94;5091478;28;20028;-26
2024/03/30 01:31:56;;;;;;;10.75;5.20;;;;;;;17.26;50.19;99743.16;5091504;28;20081;-26
2024/03/30 01:34:23;;;;;;;11.65;5.18;;;;;;;17.25;50.47;99749.63;5091363;28;20028;-26
2024/03/30 01:36:48;;;;;;;12.23;4.80;;;;;;;17.31;50.28;99745.94;5091424;28;20034;-26
2024/03/30 01:39:13;;;;;;;16.73;5.82;;;;;;;17.32;49.80;99744.88;5091468;28;20408;-26
2024/03/30 01:41:39;;;;;;;13.50;5.13;;;;;;;17.25;50.29;99754.16;5091502;28;20085;-26
2024/03/30 01:44:04;;;;;;;14.68;5.15;;;;;;;17.09;51.01;99762.00;5091821;28;20016;-26
2024/03/30 01:46:32;;;;;;;12.70;5.15;;;;;;;17.08;51.17;99744.28;5091297;28;20452;-26
2024/03/30 01:48:59;;;;;;;11.75;6.40;;;;;;;17.10;51.24;99750.22;5091525;28;20024;-26
2024/03/30 01:51:26;;;;;;;15.90;6.80;;;;;;;17.02;50.79;99745.25;5091173;28;20016;-26
2024/03/30 01:53:51;;;;;;;11.65;5.60;;;;;;;17.01;51.11;99746.31;5091405;28;20079;-27
2024/03/30 01:56:20;;;;;;;14.57;6.20;;;;;;;16.93;51.85;99755.59;5091275;28;20465;-26
2024/03/30 01:58:47;;;;;;;14.73;6.47;;;;;;;16.89;51.45;99759.03;5091324;28;20024;-26
2024/03/30 02:01:13;;;;;;;14.90;7.72;;;;;;;16.77;51.47;99762.59;5091466;28;20258;-26
2024/03/30 02:03:39;;;;;;;15.88;8.18;;;;;;;16.72;52.27;99754.44;5091423;28;20412;-26
2024/03/30 02:06:07;;;;;;;16.98;7.80;;;;;;;16.59;52.05;99760.13;5091537;28;20432;-26
2024/03/30 02:08:33;;;;;;;22.63;7.57;;;;;;;16.47;52.18;99764.72;5091131;28;20019;-26
2024/03/30 02:11:00;;;;;;;16.80;6.55;;;;;;;16.34;53.17;99773.91;5091346;28;20020;-26
2024/03/30 02:13:26;;;;;;;12.70;7.25;;;;;;;16.34;52.72;99763.97;5091236;28;20121;-26
2024/03/30 02:15:51;;;;;;;17.13;8.30;;;;;;;16.45;52.87;99766.84;5091208;28;20515;-26
2024/03/30 02:18:16;;;;;;;18.65;8.20;;;;;;;16.19;52.99;99744.91;5090752;28;20020;-26
2024/03/30 02:20:42;;;;;;;15.43;7.88;;;;;;;16.34;52.40;99773.91;5091191;28;20020;-26
2024/03/30 02:23:13;;;;;;;13.75;7.38;;;;;;;16.38;53.27;99777.75;5090935;28;20026;-27
2024/03/30 02:25:40;;;;;;;15.23;8.00;;;;;;;16.44;52.29;99774.09;5091168;28;20050;-26
2024/03/30 02:28:06;;;;;;;15.13;7.65;;;;;;;16.18;52.95;99762.88;5090871;28;20463;-26
2024/03/30 02:30:32;;;;;;;15.63;7.40;;;;;;;16.24;53.08;99774.53;5090656;28;20537;-26
2024/03/30 02:32:58;;;;;;;18.13;8.20;;;;;;;16.34;52.67;99773.91;5091194;28;20020;-26
2024/03/30 02:35:24;;;;;;;18.95;7.88;;;;;;;16.38;52.82;99772.38;5090690;28;20032;-26
2024/03/30 02:37:53;;;;;;;17.80;8.13;;;;;;;16.37;52.66;99784.16;5090681;28;20044;-26
2024/03/30 02:40:18;;;;;;;17.95;7.60;;;;;;;16.34;52.59;99777.41;5090729;28;20502;-26
2024/03/30 02:42:44;;;;;;;13.40;7.15;;;;;;;16.16;53.31;99783.78;5090363;28;20028;-26
2024/03/30 02:45:11;;;;;;;11.88;6.15;;;;;;;16.11;52.98;99778.31;5089392;28;20107;-26
2024/03/30 02:47:36;;;;;;;11.73;5.60;;;;;;;16.04;52.46;99777.63;5090990;28;20087;-26
2024/03/30 02:50:02;;;;;;;10.60;5.53;;;;;;;16.12;52.34;99776.44;5090842;28;20050;-26
2024/03/30 02:52:28;;;;;;;7.80;5.38;;;;;;;16.11;53.15;99780.19;5090602;28;20028;-26
2024/03/30 02:54:53;;;;;;;8.73;5.10;;;;;;;16.20;52.59;99787.63;5090409;28;20040;-27
2024/03/30 02:57:19;;;;;;;10.18;5.30;;;;;;;16.08;52.56;99781.47;5090426;28;20031;-26
2024/03/30 02:59:44;;;;;;;8.18;5.15;;;;;;;16.09;52.46;99774.22;5090686;28;20020;-27
2024/03/30 03:02:09;;;;;;;8.57;5.05;;;;;;;16.07;52.74;99784.38;5090532;28;20107;-27
2024/03/30 03:04:35;;;;;;;10.85;5.32;;;;;;;16.05;52.79;99787.34;5090575;28;20137;-27
2024/03/30 03:07:02;;;;;;;10.40;4.80;;;;;;;16.06;52.60;99783.56;5090669;28;20017;-27
2024/03/30 03:09:27;;;;;;;10.30;4.85;;;;;;;16.11;53.09;99783.69;5090747;28;20081;-28
2024/03/30 03:11:53;;;;;;;8.93;4.80;;;;;;;16.19;51.91;99780.63;5090457;28;20020;-25
2024/03/30 03:14:18;;;;;;;11.88;4.75;;;;;;;15.90;52.08;99781.66;5090297;28;20733;-28
2024/03/30 03:16:43;;;;;;;8.65;4.30;;;;;;;15.66;53.47;99788.91;5092865;28;20020;-26
2024/03/30 03:19:09;;;;;;;10.20;4.57;;;;;;;15.71;53.50;99789.81;5094382;28;20016;-26
2024/03/30 03:21:34;;;;;;;7.55;4.30;;;;;;;15.97;52.84;99785.84;5093908;28;20404;-27
2024/03/30 03:24:00;;;;;;;8.60;4.32;;;;;;;16.03;52.29;99776.81;5094049;28;20073;-26
2024/03/30 03:26:25;;;;;;;10.73;4.95;;;;;;;15.94;52.55;99770.19;5093944;28;20098;-26
2024/03/30 03:28:50;;;;;;;10.77;4.63;;;;;;;16.00;52.48;99785.34;5093837;28;20024;-31
2024/03/30 03:31:16;;;;;;;9.95;5.03;;;;;;;16.03;52.12;99797.50;5094006;28;20099;-26
2024/03/30 03:33:42;;;;;;;10.55;5.07;;;;;;;16.08;52.42;99802.13;5093790;28;20491;-26
2024/03/30 03:36:07;;;;;;;9.02;4.82;;;;;;;15.85;52.61;99790.41;5093790;28;20032;-27
2024/03/30 03:38:33;;;;;;;11.93;5.03;;;;;;;15.94;53.28;99807.78;5093734;28;20066;-26
2024/03/30 03:40:58;;;;;;;13.63;5.18;;;;;;;15.89;52.60;99790.75;5093679;28;20480;-26
2024/03/30 03:43:24;;;;;;;10.95;5.32;;;;;;;15.89;52.99;99802.28;5093886;28;20053;-26
2024/03/30 03:45:50;;;;;;;9.70;4.70;;;;;;;15.99;53.27;99807.88;5094002;28;20044;-26
2024/03/30 03:48:16;;;;;;;12.13;4.97;;;;;;;15.91;53.46;99808.22;5092192;28;20031;-26
2024/03/30 03:50:41;;;;;;;10.00;5.28;;;;;;;15.81;53.26;99810.72;5093604;28;20369;-26
2024/03/30 03:53:07;;;;;;;11.20;5.25;;;;;;;15.79;53.55;99804.78;5093351;28;20085;-26
2024/03/30 03:55:33;;;;;;;10.63;5.20;;;;;;;15.77;53.53;99813.06;5092873;28;20031;-26
2024/03/30 03:57:59;;;;;;;12.20;4.85;;;;;;;15.76;53.42;99806.06;5093681;28;20028;-26
2024/03/30 04:00:25;;;;;;;12.05;5.13;;;;;;;15.73;53.70;99809.22;5092961;28;20034;-26
2024/03/30 04:02:50;;;;;;;11.70;5.10;;;;;;;15.47;54.14;99782.84;5093273;28;20102;-26
2024/03/30 04:05:15;;;;;;;8.20;4.75;;;;;;;15.73;53.83;99806.53;5093375;28;20020;-27
2024/03/30 04:07:41;;;;;;;11.63;4.75;;;;;;;15.61;53.88;99809.22;5093183;28;20063;-27
2024/03/30 04:10:08;;;;;;;11.35;4.68;;;;;;;15.56;53.79;99795.66;5092975;28;20056;-26
2024/03/30 04:12:34;;;;;;;10.25;5.18;;;;;;;15.52;53.93;99804.44;5093017;28;20490;-26
2024/03/30 04:14:59;;;;;;;13.55;5.30;;;;;;;15.45;55.15;99799.97;5093052;28;20079;-26
2024/03/30 04:17:25;;;;;;;14.63;5.60;;;;;;;15.47;54.94;99799.75;5092876;28;20027;-26
2024/03/30 04:19:50;;;;;;;13.30;5.40;;;;;;;15.41;55.41;99798.03;5093019;28;20380;-26
2024/03/30 04:22:16;;;;;;;15.63;5.85;;;;;;;15.33;55.84;99801.06;5092548;28;20472;-27
2024/03/30 04:24:41;;;;;;;11.52;5.75;;;;;;;15.44;55.28;99809.09;5093190;28;20024;-26
2024/03/30 04:27:07;;;;;;;16.05;6.38;;;;;;;15.54;54.94;99805.00;5091775;28;20172;-26
2024/03/30 04:29:32;;;;;;;17.35;6.82;;;;;;;15.49;55.18;99794.97;5092300;28;20495;-26
2024/03/30 04:31:57;;;;;;;14.45;6.68;;;;;;;15.51;55.88;99798.22;5093181;28;20028;-26
2024/03/30 04:34:23;;;;;;;15.75;6.85;;;;;;;15.35;56.30;99796.28;5092325;28;20036;-26
2024/03/30 04:36:48;;;;;;;13.30;7.00;;;;;;;15.40;56.76;99807.09;5092904;28;20031;-26
2024/03/30 04:39:14;;;;;;;14.60;7.45;;;;;;;15.39;56.32;99800.94;5092462;28;20138;-28
2024/03/30 04:41:39;;;;;;;18.70;8.10;;;;;;;15.64;55.77;99805.22;5092464;28;20095;-26
2024/03/30 04:44:04;;;;;;;16.25;8.10;;;;;;;15.62;54.55;99808.13;5092980;28;20024;-27
2024/03/30 04:46:30;;;;;;;19.20;8.70;;;;;;;15.73;55.63;99803.00;5092497;28;20486;-26
2024/03/30 04:48:55;;;;;;;20.13;7.68;;;;;;;15.79;55.86;99808.25;5092414;28;20078;-26
2024/03/30 04:51:21;;;;;;;17.73;7.78;;;;;;;15.91;55.46;99815.47;5092466;28;20020;-27
2024/03/30 04:53:46;;;;;;;18.00;7.75;;;;;;;16.02;55.64;99801.22;5092484;28;20020;-26
2024/03/30 04:56:11;;;;;;;23.75;12.57;;;;;;;16.33;55.32;99821.41;5092403;28;20043;-27
2024/03/30 04:58:37;;;;;;;29.05;15.90;;;;;;;16.75;54.52;99820.28;5092138;28;20016;-26
2024/03/30 05:01:07;;;;;;;22.23;11.25;;;;;;;17.24;52.79;99827.84;5092176;28;20099;-26
2024/03/30 05:03:34;;;;;;;17.58;9.23;;;;;;;17.39;52.37;99823.50;5092262;28;20020;-26
2024/03/30 05:06:01;;;;;;;20.92;11.48;;;;;;;17.65;52.05;99837.34;5092197;28;20024;-27
2024/03/30 05:08:27;;;;;;;16.85;8.07;;;;;;;17.76;50.79;99833.75;5092098;28;20028;-27
2024/03/30 05:10:53;;;;;;;15.65;7.70;;;;;;;17.95;49.86;99831.59;5092430;28;20073;-26
2024/03/30 05:13:19;;;;;;;16.75;7.53;;;;;;;18.41;47.52;99834.00;5092312;28;20032;-27
2024/03/30 05:15:44;;;;;;;12.30;6.63;;;;;;;18.35;47.67;99827.75;5092090;28;20016;-26
2024/03/30 05:18:12;;;;;;;12.40;5.95;;;;;;;18.53;47.03;99840.06;5092555;28;20521;-27
2024/03/30 05:20:51;;;;;;;17.13;6.05;;;;;;;18.54;47.40;99840.88;5092914;28;20337;-26
2024/03/30 05:23:17;;;;;;;10.63;5.78;;;;;;;18.67;46.60;99836.97;5092318;28;20036;-27
2024/03/30 05:25:43;;;;;;;12.30;5.63;;;;;;;18.95;46.89;99827.81;5092226;28;20024;-25
2024/03/30 05:28:08;;;;;;;13.32;6.00;;;;;;;19.16;46.67;99823.41;5092037;28;20098;-26
2024/03/30 05:30:35;;;;;;;12.68;5.85;;;;;;;19.62;46.11;99831.00;5091876;28;20023;-27
2024/03/30 05:33:00;;;;;;;14.35;6.28;;;;;;;20.01;43.94;99834.19;5091655;28;20050;-26
2024/03/30 05:35:26;;;;;;;17.00;6.53;;;;;;;20.11;43.57;99825.31;5091873;28;20028;-28
2024/03/30 05:37:51;;;;;;;13.60;6.03;;;;;;;20.32;43.91;99828.91;5091556;28;20108;-26
2024/03/30 05:40:16;;;;;;;13.45;6.25;;;;;;;20.41;43.43;99832.72;5091429;28;20036;-27
2024/03/30 05:42:42;;;;;;;17.58;6.57;;;;;;;20.57;42.91;99833.53;5092031;28;20031;-27
2024/03/30 05:45:07;;;;;;;17.85;6.65;;;;;;;20.87;41.64;99840.13;5091962;28;20028;-27
2024/03/30 05:47:32;;;;;;;18.77;7.38;;;;;;;20.97;41.40;99845.53;5091300;28;20024;-27
2024/03/30 05:49:59;;;;;;;12.52;6.78;;;;;;;21.00;41.45;99842.28;5091741;28;20020;-26
2024/03/30 05:52:24;;;;;;;13.75;6.13;;;;;;;21.21;40.89;99850.38;5092007;28;20434;-27
2024/03/30 05:54:50;;;;;;;15.95;6.30;;;;;;;21.06;41.05;99849.31;5091218;28;20131;-26
2024/03/30 05:57:15;;;;;;;13.00;6.43;;;;;;;21.04;42.17;99846.06;5091191;28;20023;-27
2024/03/30 05:59:40;;;;;;;16.38;6.18;;;;;;;21.54;41.28;99850.94;5090706;28;20059;-26
2024/03/30 06:02:06;;;;;;;13.77;4.75;;;;;;;21.77;40.12;99847.63;5091004;28;20117;-27
2024/03/30 06:04:31;;;;;;;11.95;5.00;;;;;;;22.02;39.82;99854.06;5090999;28;20064;-28
2024/03/30 06:06:57;;;;;;;13.77;4.57;;;;;;;22.36;39.46;99846.06;5090935;28;20028;-26
2024/03/30 06:09:22;;;;;;;10.10;4.30;;;;;;;22.74;38.80;99845.59;5089931;28;20042;-26
2024/03/30 06:11:48;;;;;;;16.88;4.50;;;;;;;23.11;37.90;99847.75;5091135;28;20118;-26
2024/03/30 06:14:13;;;;;;;11.90;4.60;;;;;;;22.97;38.35;99850.28;5090831;28;20026;-27
2024/03/30 06:16:39;;;;;;;14.60;5.03;;;;;;;23.27;37.82;99861.22;5091199;28;20042;-26
2024/03/30 06:19:04;;;;;;;13.35;6.60;;;;;;;23.65;37.03;99850.53;5090626;28;20476;-27
2024/03/30 06:21:30;;;;;;;16.38;6.85;;;;;;;23.91;35.76;99853.81;5090364;28;20027;-27
2024/03/30 06:23:55;;;;;;;12.75;6.45;;;;;;;23.88;35.43;99849.75;5090173;28;20131;-27
2024/03/30 06:26:21;;;;;;;15.68;6.68;;;;;;;23.94;35.23;99850.50;5090896;28;20020;-27
2024/03/30 06:28:46;;;;;;;10.73;6.00;;;;;;;23.98;35.20;99851.53;5090463;28;20024;-27
2024/03/30 06:31:12;;;;;;;14.75;6.10;;;;;;;23.97;36.32;99844.47;5090468;28;20345;-28
2024/03/30 06:33:38;;;;;;;15.88;10.10;;;;;;;24.05;36.05;99843.06;5090692;28;20123;-26
2024/03/30 06:36:03;;;;;;;16.70;8.75;;;;;;;24.31;35.52;99847.06;5090717;28;20028;-27
2024/03/30 06:38:29;;;;;;;13.98;6.40;;;;;;;24.82;34.97;99850.19;5089978;28;20136;-26
2024/03/30 06:43:41;;;;;;;13.73;6.50;;;;;;;24.56;34.95;99854.09;5088833;28;20094;-26
2024/03/30 06:46:08;;;;;;;22.02;11.95;;;;;;;25.30;34.11;99853.50;5090388;28;20023;-37
2024/03/30 06:48:33;;;;;;;18.13;7.50;;;;;;;25.71;33.06;99855.47;5089734;28;20480;-38
2024/03/30 06:50:59;;;;;;;20.33;9.15;;;;;;;25.60;33.03;99861.41;5091419;28;20035;-37
2024/03/30 06:53:25;;;;;;;15.13;5.95;;;;;;;25.18;34.08;99859.38;5097770;28;20028;-41
2024/03/30 06:55:50;;;;;;;13.18;5.00;;;;;;;25.95;33.82;99859.97;5094449;28;20024;-39
2024/03/30 06:58:16;;;;;;;11.82;5.10;;;;;;;26.29;33.97;99867.72;5093575;28;20027;-39
2024/03/30 07:00:42;;;;;;;16.73;6.50;;;;;;;26.62;34.92;99853.91;5094496;28;20028;-40
2024/03/30 07:03:08;;;;;;;14.20;5.00;;;;;;;26.78;32.19;99861.75;5094165;28;20060;-38
2024/03/30 07:05:34;;;;;;;14.18;4.57;;;;;;;27.24;31.53;99866.09;5094474;28;20047;-41
2024/03/30 07:08:00;;;;;;;15.20;4.78;;;;;;;27.20;31.77;99863.16;5094136;28;20028;-39
2024/03/30 07:10:25;;;;;;;16.15;4.10;;;;;;;27.58;31.13;99857.28;5094073;28;20031;-39
2024/03/30 07:12:54;;;;;;;15.73;4.68;;;;;;;27.94;30.50;99864.56;5094129;28;20028;-40
2024/03/30 07:15:20;;;;;;;13.73;4.80;;;;;;;28.35;30.22;99865.28;5094055;28;20020;-37
2024/03/30 07:17:46;;;;;;;16.20;4.38;;;;;;;28.30;30.01;99860.78;5093573;28;20102;-40
2024/03/30 07:20:11;;;;;;;14.32;4.30;;;;;;;28.55;29.56;99872.91;5093652;28;20477;-40
2024/03/30 07:22:37;;;;;;;12.20;4.50;;;;;;;28.61;29.25;99874.34;5093644;28;20022;-40
2024/03/30 07:25:03;;;;;;;17.75;4.70;;;;;;;28.37;29.65;99863.84;5093942;28;20100;-39
2024/03/30 07:27:28;;;;;;;13.35;4.50;;;;;;;28.84;29.32;99871.47;5094183;28;20028;-41
2024/03/30 07:29:54;;;;;;;14.75;4.38;;;;;;;28.39;29.64;99867.06;5093815;28;20027;-41
2024/03/30 07:32:19;;;;;;;12.20;4.40;;;;;;;28.77;29.23;99882.09;5083901;28;20020;-38
2024/03/30 07:34:49;;;;;;;16.17;4.30;;;;;;;28.83;29.09;99870.66;5090611;28;20016;-40
2024/03/30 07:37:15;;;;;;;15.32;6.07;;;;;;;28.77;30.79;99874.69;5102456;28;20096;-39
2024/03/30 07:39:41;;;;;;;12.13;5.03;;;;;;;29.18;30.15;99867.13;5097184;28;20035;-41
2024/03/30 07:42:07;;;;;;;12.73;4.43;;;;;;;29.27;28.88;99867.09;5097645;28;20031;-39
2024/03/30 07:44:36;;;;;;;17.00;4.88;;;;;;;29.49;28.38;99864.13;5096474;28;20028;-39
2024/03/30 07:47:04;;;;;;;18.35;4.85;;;;;;;29.52;28.56;99866.22;5093296;28;20086;-39
2024/03/30 07:49:30;;;;;;;;;;;;;;;29.81;27.41;99867.41;5093442;28;20115;-41
2024/03/30 07:51:55;;;;;;;15.07;4.50;;;;;;;29.02;28.97;99861.31;5092740;28;20003;-41
2024/03/30 07:54:21;;;;;;;12.57;4.28;;;;;;;29.23;28.66;99864.22;5092488;28;20565;-41
2024/03/30 07:57:00;;;;;;;18.42;4.10;;;;;;;29.38;27.96;99862.88;5093037;28;20031;-39
2024/03/30 07:59:26;;;;;;;14.13;4.35;;;;;;;29.53;28.70;99859.63;5093136;28;20024;-39
2024/03/30 08:01:52;;;;;;;13.95;4.47;;;;;;;29.33;29.14;99860.31;5093011;28;20568;-37
2024/03/30 08:04:18;;;;;;;14.77;4.15;;;;;;;29.35;29.90;99858.84;5092667;28;20103;-39
2024/03/30 08:06:46;;;;;;;16.88;4.38;;;;;;;29.50;28.78;99868.47;5093050;28;20028;-40
2024/03/30 08:09:12;;;;;;;15.10;4.32;;;;;;;30.01;28.05;99869.44;5092814;28;20024;-40
2024/03/30 08:11:41;;;;;;;22.73;8.90;;;;;;;30.28;34.66;99870.06;5093282;28;20031;-40
2024/03/30 08:14:07;;;;;;;15.85;4.50;;;;;;;30.09;28.24;99865.03;5091408;28;20338;-39
2024/03/30 08:16:32;;;;;;;16.27;4.10;;;;;;;29.59;28.60;99852.81;5093022;28;20432;-40
2024/03/30 08:18:58;;;;;;;13.13;4.22;;;;;;;30.15;27.90;99866.44;5092816;28;20024;-38
2024/03/30 08:21:24;;;;;;;14.63;4.93;;;;;;;30.18;28.15;99859.50;5092807;28;20024;-42
2024/03/30 08:23:50;;;;;;;12.05;3.70;;;;;;;30.65;27.47;99851.09;5092295;28;20096;-39
2024/03/30 08:26:16;;;;;;;12.50;3.83;;;;;;;30.91;27.10;99845.41;5092623;28;20487;-40
2024/03/30 08:28:41;;;;;;;15.77;4.35;;;;;;;30.79;26.87;99848.88;5092660;28;20535;-40
2024/03/30 08:31:07;;;;;;;17.35;4.30;;;;;;;30.84;27.23;99839.63;5091559;28;20499;-39
2024/03/30 08:33:32;;;;;;;13.88;4.40;;;;;;;30.84;27.10;99850.59;5091470;28;20024;-38
2024/03/30 08:35:57;;;;;;;13.77;4.10;;;;;;;30.47;27.47;99841.41;5091418;28;20550;-38
2024/03/30 08:38:23;;;;;;;14.02;5.93;;;;;;;30.79;26.81;99846.13;5091497;28;20055;-40
2024/03/30 08:40:49;;;;;;;14.05;5.68;;;;;;;31.06;27.12;99837.69;5092282;28;20036;-39
2024/03/30 08:43:15;;;;;;;11.75;5.22;;;;;;;31.45;26.51;99839.00;5091531;28;20504;-39
2024/03/30 08:45:41;;;;;;;11.93;3.83;;;;;;;31.60;25.95;99836.78;5092085;28;20043;-41
2024/03/30 08:48:12;;;;;;;13.85;4.18;;;;;;;31.46;25.63;99832.41;5092316;28;20441;-39
2024/03/30 08:50:37;;;;;;;10.70;4.22;;;;;;;31.79;25.89;99823.25;5092732;28;20027;-39
2024/03/30 08:53:03;;;;;;;11.07;4.05;;;;;;;32.05;26.29;99822.13;5092491;28;20077;-39
2024/03/30 08:55:28;;;;;;;13.07;4.20;;;;;;;32.17;25.63;99819.34;5092535;28;20103;-44
2024/03/30 08:57:53;;;;;;;13.20;4.18;;;;;;;32.04;25.18;99818.53;5091824;28;20469;-40
2024/03/30 09:00:19;;;;;;;10.77;4.00;;;;;;;32.04;25.25;99815.78;5091797;28;20514;-41
2024/03/30 09:02:44;;;;;;;13.05;4.25;;;;;;;32.40;24.75;99810.56;5091930;28;20031;-38
2024/03/30 09:05:10;;;;;;;15.10;4.00;;;;;;;32.41;25.38;99810.22;5091943;28;20016;-37
2024/03/30 09:07:35;;;;;;;15.65;4.05;;;;;;;32.16;24.66;99806.75;5091870;28;20031;-39
2024/03/30 09:10:01;;;;;;;13.55;5.97;;;;;;;30.85;26.10;99802.00;5091763;28;20111;-39
2024/03/30 09:12:26;;;;;;;12.20;4.65;;;;;;;31.33;26.21;99800.50;5091463;28;20016;-39
2024/03/30 09:14:52;;;;;;;13.18;4.00;;;;;;;30.00;27.34;99799.22;5090893;28;20099;-40
2024/03/30 09:17:17;;;;;;;11.48;3.75;;;;;;;30.99;26.06;99791.50;5091737;28;20030;-39
2024/03/30 09:19:42;;;;;;;13.93;3.90;;;;;;;30.50;26.36;99788.56;5091527;28;20022;-37
2024/03/30 09:22:08;;;;;;;11.75;3.90;;;;;;;30.95;25.81;99779.59;5091109;28;20028;-39
2024/03/30 09:24:33;;;;;;;11.68;3.58;;;;;;;30.35;26.09;99782.56;5091597;28;20016;-40
2024/03/30 09:26:59;;;;;;;12.95;3.83;;;;;;;30.63;26.38;99783.94;5091774;28;20020;-40
2024/03/30 09:29:24;;;;;;;14.13;4.30;;;;;;;31.59;25.35;99778.22;5091423;28;20043;-40
2024/03/30 09:31:50;;;;;;;11.60;3.83;;;;;;;32.26;24.86;99781.47;5091536;28;20456;-39
2024/03/30 09:34:15;;;;;;;11.02;3.60;;;;;;;31.54;24.63;99772.94;5091705;28;20108;-39
2024/03/30 09:36:41;;;;;;;13.65;3.50;;;;;;;30.50;25.93;99759.19;5090006;28;20028;-39
2024/03/30 09:39:06;;;;;;;8.25;3.40;;;;;;;30.47;26.21;99748.88;5091286;28;20040;-39
2024/03/30 09:41:46;;;;;;;9.82;3.67;;;;;;;29.74;26.50;99755.53;5081401;28;20392;-39
2024/03/30 09:44:11;;;;;;;11.77;3.67;;;;;;;29.68;26.99;99754.06;5071148;28;20020;-39
2024/03/30 09:46:39;;;;;;;14.95;4.00;;;;;;;29.60;27.06;99747.50;5073139;28;20024;-38
2024/03/30 09:49:06;;;;;;;9.43;3.47;;;;;;;29.59;27.52;99748.63;5091374;28;20074;-42
2024/03/30 09:51:32;;;;;;;12.57;3.30;;;;;;;30.29;26.37;99748.19;5090744;28;20253;-39
2024/03/30 09:53:59;;;;;;;9.98;3.55;;;;;;;30.35;26.50;99741.38;5075822;28;20035;-39
2024/03/30 09:56:26;;;;;;;9.93;3.38;;;;;;;30.90;26.20;99735.84;5091697;28;20024;-37
2024/03/30 09:58:53;;;;;;;16.90;3.70;;;;;;;31.10;25.56;99725.94;5091285;28;20020;-39
2024/03/30 10:01:19;;;;;;;12.00;3.80;;;;;;;31.24;25.34;99734.66;5091606;28;20035;-41
2024/03/30 10:03:44;;;;;;;13.43;3.42;;;;;;;31.46;25.12;99729.84;5091086;28;20020;-39
2024/03/30 10:06:11;;;;;;;8.05;3.20;;;;;;;29.15;27.75;99725.28;5091059;28;20024;-40
2024/03/30 10:08:44;;;;;;;14.07;3.55;;;;;;;27.62;29.31;99727.09;5091269;28;20082;-40
2024/03/30 10:11:12;;;;;;;10.82;3.20;;;;;;;27.63;29.93;99725.97;5090900;28;20020;-40
2024/03/30 10:13:54;;;;;;;13.20;3.75;;;;;;;28.42;29.05;99720.59;5090995;28;20031;-39
2024/03/30 10:16:19;;;;;;;14.65;3.80;;;;;;;28.37;28.92;99710.63;5090234;28;20481;-40
2024/03/30 10:18:46;;;;;;;13.35;3.58;;;;;;;28.60;29.12;99716.75;5091826;28;20108;-39
2024/03/30 10:21:13;;;;;;;10.73;3.55;;;;;;;28.60;29.40;99713.22;5090625;28;20020;-40
2024/03/30 10:23:38;;;;;;;11.95;3.88;;;;;;;29.07;28.93;99715.94;5091006;28;20032;-40
2024/03/30 10:26:16;;;;;;;10.13;3.50;;;;;;;28.61;28.96;99712.84;5092521;28;20023;-39
2024/03/30 10:28:41;;;;;;;9.18;3.42;;;;;;;28.44;28.61;99710.94;5095859;28;20016;-39
2024/03/30 10:31:07;;;;;;;8.05;3.40;;;;;;;29.19;27.71;99696.94;5094686;28;20107;-41
2024/03/30 10:33:32;;;;;;;9.90;3.30;;;;;;;28.43;28.52;99678.44;5094642;28;20016;-39
2024/03/30 10:35:58;;;;;;;7.78;3.10;;;;;;;28.01;29.48;99689.88;5093885;28;20040;-36
2024/03/30 10:38:29;;;;;;;9.25;3.10;;;;;;;27.39;30.43;99670.94;5094942;28;20105;-40
2024/03/30 10:40:55;;;;;;;6.90;3.00;;;;;;;27.61;30.12;99678.25;5095272;28;20409;-41
2024/03/30 10:43:20;;;;;;;6.25;3.28;;;;;;;27.85;29.74;99666.84;5095075;28;20026;-41
2024/03/30 10:45:46;;;;;;;8.00;2.75;;;;;;;27.74;29.92;99660.06;5095064;28;20103;-39
2024/03/30 10:48:12;;;;;;;6.72;2.78;;;;;;;28.10;29.60;99664.44;5095677;28;20103;-40
2024/03/30 10:50:38;;;;;;;11.02;3.50;;;;;;;27.70;30.45;99659.91;5095049;28;20028;-39
2024/03/30 10:53:05;;;;;;;8.02;2.90;;;;;;;28.07;29.74;99654.97;5095369;28;20039;-41
2024/03/30 10:55:35;;;;;;;9.77;2.97;;;;;;;28.48;29.70;99656.34;5093773;28;20437;-40
2024/03/30 10:58:01;;;;;;;8.40;3.25;;;;;;;28.87;29.32;99650.97;5095598;28;20341;-38
2024/03/30 11:00:28;;;;;;;10.98;3.08;;;;;;;28.58;29.55;99641.56;5095127;28;20085;-37
2024/03/30 11:02:55;;;;;;;8.68;3.10;;;;;;;28.62;29.42;99658.94;5095427;28;20064;-43
2024/03/30 11:05:22;;;;;;;6.60;2.80;;;;;;;27.96;30.23;99631.81;5094426;28;20103;-41
2024/03/30 11:07:48;;;;;;;10.52;2.83;;;;;;;28.81;29.61;99642.94;5094479;28;20030;-41
2024/03/30 11:10:14;;;;;;;10.10;2.85;;;;;;;29.23;28.63;99628.59;5093105;28;20050;-39
2024/03/30 11:12:41;;;;;;;6.78;2.90;;;;;;;29.10;27.96;99619.44;5093488;28;20472;-38
2024/03/30 11:15:06;;;;;;;6.82;2.80;;;;;;;27.78;30.00;99617.28;5093743;28;20028;-39
2024/03/30 11:17:42;;;;;;;7.47;2.60;;;;;;;28.11;29.93;99620.38;5094088;28;20548;-37
2024/03/30 11:20:13;;;;;;;10.07;2.90;;;;;;;28.21;28.57;99622.75;5094290;28;20028;-40
2024/03/30 11:23:08;;;;;;;11.00;3.08;;;;;;;28.42;29.05;99608.41;5094075;28;20480;-39
2024/03/30 11:25:41;;;;;;;9.30;2.67;;;;;;;28.60;28.17;99598.25;5094065;28;20075;-41